LFLN/SYT METAR and TAF weather

Enter ICAO airport designator
Station Type Date Time Source
LFLN METAR 2019/10/14 06:30 UTC NOAA

LFLN 140630Z AUTO 15009KT CAVOK 18/11 Q1012 TEMPO 17015G25KT


Station Type Date Time Source
LFLN Decoded METAR 2019/10/14 06:30 UTC NOAA

Saint-Yan, France (LFLN) 46-25N 004-01E 244M
Oct 14, 2019 - 02:30 AM EDT / 2019.10.14 0630 UTC
Wind: from the SSE (150 degrees) at 10 MPH (9 KT):0
Visibility: greater than 7 mile(s):0
Temperature: 64 F (18 C)
Dew Point: 51 F (11 C)
Relative Humidity: 63%
Pressure (altimeter): 29.88 in. Hg (1012 hPa)
ob: LFLN 140630Z AUTO 15009KT CAVOK 18/11 Q1012 TEMPO 17015G25KT
cycle: 6

Station Type Date Time Source
LFLN TAF UTC NOAA

Error!

Example: see airport list